Aasiaat, Greenland

10:10 AM WGST on August 31, 2015 (GMT -0200)
Ilulissat | | Change Station
CLOSE
Current Station
Airport
Location: Ilulissat,
Elevation: 112 ft
Nearby Weather Stations

Elev 112 ft 69.24 °N, 51.07 °W | Updated 20 minutes ago

Mostly Cloudy
Mostly Cloudy
39 °F
Feels Like 36 °F
N
5
Wind Variable Wind from NNW

Today
High -- | Low -- °F
--% Chance of Precip.
Yesterday
High -- | Low -- °F
Precip. -- in
5:48 AM 9:11 PM
Waning Gibbous, 95% visible
Pressure 29.77 in
Visibility 6.2 miles
Clouds Few 400 ft
Mostly Cloudy 4900 ft
Mostly Cloudy 10000 ft
Windchill 36 °F
Dew Point 36 °F
Humidity 87%
Rainfall 0.00 in
Snow Depth Not available.
UV 1 out of 12
Pollen Not available.
Air Quality Not available.
Flu Activity Not available.
METAR BGJN 311150Z 34004KT 9999 FEW004 BKN049 BKN100 04/02 Q1008
Pressure 29.77 in
Visibility 6.2 miles
Clouds Few 400 ft
Mostly Cloudy 4900 ft
Mostly Cloudy 10000 ft
Windchill 36 °F
Dew Point 36 °F
Humidity 87%
Rainfall 0.00 in
Snow Depth Not available.
UV 1 out of 12
Pollen Not available.
Air Quality Not available.
Flu Activity Not available.
METAR BGJN 311150Z 34004KT 9999 FEW004 BKN049 BKN100 04/02 Q1008

10-Day Weather Forecast

×

Almanac

Astronomy

Aug. 31, 2015 Rise Set
Actual Time
Civil Twilight
Nautical Twilight
Astronomical Twilight
Moon
Length of Visible Light
Length of Day
Tomorrow will be .
, % of the Moon is Illuminated

Today's Extremes

Country Highs Country Lows

Community

WunderPhotos

Upload Photos

1,851,222 photos uploaded!

WunderBlogs® & News

Nearby

Air Quality

  Air Quality AQ Index Pollutant
Not available.

Snow Depth

Station Depth Elevation

Earthquake Activity

City Distance Mag. Time & Date
Minimum magnitude displayed is 2.5.

Coastal Water Temperatures

Place Temperature

Stations

Nearby Weather Stations

Station Location Temp. Windchill Dew Point Humidity Wind Precip. Elev Updated Type